createdAt,value
2019-04-05T00:01:25.799Z,9.50
2019-04-05T00:06:27.148Z,9.00
2019-04-05T00:08:58.781Z,8.58
2019-04-05T00:11:30.394Z,9.48
2019-04-05T00:14:02.074Z,9.05
2019-04-05T00:16:34.950Z,8.85
2019-04-05T00:19:06.542Z,8.45
2019-04-05T00:21:38.167Z,8.98
2019-04-05T00:24:09.506Z,8.05
2019-04-05T00:26:40.734Z,9.58
2019-04-05T00:29:12.911Z,10.68
2019-04-05T00:31:44.429Z,7.97
2019-04-05T00:34:16.424Z,10.45
2019-04-05T00:36:48.134Z,8.90
2019-04-05T00:39:19.336Z,8.80
2019-04-05T00:41:50.759Z,9.80
2019-04-05T00:44:22.550Z,10.60
2019-04-05T00:46:53.870Z,9.58
2019-04-05T00:49:25.436Z,10.43
2019-04-05T00:51:56.802Z,9.65
2019-04-05T00:54:28.353Z,10.40
2019-04-05T00:57:00.095Z,9.08
2019-04-05T01:02:01.668Z,10.08
2019-04-05T01:04:32.928Z,8.50
2019-04-05T01:07:04.586Z,10.10
2019-04-05T01:09:36.322Z,9.45
2019-04-05T01:12:07.954Z,8.60
2019-04-05T01:14:39.431Z,9.68
2019-04-05T01:17:10.682Z,10.20
2019-04-05T01:19:44.366Z,10.98
2019-04-05T01:22:17.807Z,11.68
2019-04-05T01:24:49.538Z,12.53
2019-04-05T01:27:22.208Z,13.32
2019-04-05T01:29:53.457Z,13.43
2019-04-05T01:32:25.075Z,14.65
2019-04-05T01:34:56.738Z,14.70
2019-04-05T01:37:28.192Z,12.75
2019-04-05T01:40:00.111Z,13.88
2019-04-05T01:42:31.915Z,13.53
2019-04-05T01:47:34.205Z,13.55
2019-04-05T01:50:06.366Z,13.48
2019-04-05T01:52:38.882Z,13.10
2019-04-05T01:55:10.909Z,12.40
2019-04-05T01:57:42.554Z,15.28
2019-04-05T02:00:14.293Z,15.48
2019-04-05T02:02:45.543Z,14.58
2019-04-05T02:05:16.940Z,13.90
2019-04-05T02:07:48.144Z,13.35
2019-04-05T02:10:19.637Z,13.43
2019-04-05T02:12:51.201Z,13.78
2019-04-05T02:15:27.504Z,13.70
2019-04-05T02:17:58.873Z,12.68
2019-04-05T02:20:30.739Z,12.23
2019-04-05T02:25:31.999Z,11.73
2019-04-05T02:28:03.237Z,10.93
2019-04-05T02:30:34.776Z,11.75
2019-04-05T02:33:06.989Z,10.93
2019-04-05T02:35:39.218Z,10.30
2019-04-05T02:38:11.517Z,11.00
2019-04-05T02:40:44.307Z,11.20
2019-04-05T02:43:18.691Z,9.65
2019-04-05T02:45:50.771Z,11.05
2019-04-05T02:48:22.271Z,10.72
2019-04-05T02:50:57.320Z,10.85
2019-04-05T02:53:29.990Z,10.98
2019-04-05T02:56:03.190Z,9.53
2019-04-05T02:58:36.852Z,11.45
2019-04-05T03:01:08.558Z,10.50
2019-04-05T03:03:40.991Z,10.90
2019-04-05T03:06:13.038Z,10.63
2019-04-05T03:08:45.083Z,10.45
2019-04-05T03:11:19.073Z,10.40
2019-04-05T03:13:56.489Z,12.30
2019-04-05T03:16:40.853Z,12.65
2019-04-05T03:19:15.730Z,10.70
2019-04-05T03:21:53.637Z,12.78
2019-04-05T03:24:28.582Z,12.78
2019-04-05T03:27:04.377Z,14.18
2019-04-05T03:29:35.887Z,15.23
2019-04-05T03:32:07.218Z,15.93
2019-04-05T03:34:39.723Z,16.07
2019-04-05T03:37:11.470Z,18.73
2019-04-05T03:42:13.113Z,14.35
2019-04-05T03:44:45.107Z,16.12
2019-04-05T03:47:16.552Z,14.68
2019-04-05T03:49:48.453Z,15.35
2019-04-05T03:54:50.924Z,14.33
2019-04-05T03:57:23.091Z,15.63
2019-04-05T03:59:55.294Z,13.78
2019-04-05T04:02:26.766Z,15.20
2019-04-05T04:04:58.600Z,15.75
2019-04-05T04:07:30.206Z,16.10
2019-04-05T04:10:01.577Z,14.63
2019-04-05T04:12:33.319Z,13.93
2019-04-05T04:15:14.629Z,14.30
2019-04-05T04:17:47.476Z,14.98
2019-04-05T04:20:38.492Z,14.55
2019-04-05T04:23:10.625Z,15.83
2019-04-05T04:25:43.134Z,15.65
2019-04-05T04:28:14.910Z,16.60
2019-04-05T04:30:47.622Z,15.58
2019-04-05T04:33:19.487Z,15.45
2019-04-05T04:35:51.824Z,14.43
2019-04-05T04:38:25.970Z,15.28
2019-04-05T04:40:57.611Z,15.55
2019-04-05T04:43:29.590Z,15.60
2019-04-05T04:46:01.609Z,15.55
2019-04-05T04:48:33.553Z,16.50
2019-04-05T04:51:04.891Z,19.57
2019-04-05T04:53:36.249Z,17.50
2019-04-05T04:56:08.578Z,17.60
2019-04-05T04:58:39.879Z,17.92
2019-04-05T05:01:11.995Z,17.05
2019-04-05T05:03:43.718Z,18.27
2019-04-05T05:06:16.559Z,18.05
2019-04-05T05:08:48.436Z,16.62
2019-04-05T05:11:20.134Z,17.75
2019-04-05T05:13:52.484Z,18.32
2019-04-05T05:16:24.107Z,20.25
2019-04-05T05:18:55.424Z,22.62
2019-04-05T05:21:27.401Z,22.70
2019-04-05T05:23:59.302Z,21.60
2019-04-05T05:26:31.613Z,22.67
2019-04-05T05:29:03.666Z,24.50
2019-04-05T05:31:36.221Z,24.95
2019-04-05T05:34:08.439Z,21.62
2019-04-05T05:36:39.657Z,23.73
2019-04-05T05:39:11.643Z,24.92
2019-04-05T05:41:43.156Z,23.12
2019-04-05T05:44:14.889Z,21.10
2019-04-05T05:49:17.151Z,25.02
2019-04-05T05:51:49.539Z,23.47
2019-04-05T05:54:21.749Z,26.23
2019-04-05T05:56:53.604Z,23.95
2019-04-05T05:59:24.979Z,25.48
2019-04-05T06:01:56.400Z,26.77
2019-04-05T06:04:28.044Z,26.93
2019-04-05T06:06:59.560Z,25.17
2019-04-05T06:09:30.963Z,31.00
2019-04-05T06:12:02.377Z,29.23
2019-04-05T06:14:34.475Z,26.97
2019-04-05T06:17:08.107Z,26.37
2019-04-05T06:19:39.702Z,27.50
2019-04-05T06:22:10.925Z,30.05
2019-04-05T06:24:42.827Z,31.93
2019-04-05T06:27:14.049Z,29.23
2019-04-05T06:29:45.348Z,31.37
2019-04-05T06:32:16.721Z,31.27
2019-04-05T06:34:48.048Z,28.45
2019-04-05T06:37:19.240Z,29.12
2019-04-05T06:39:50.875Z,29.55
2019-04-05T06:42:22.098Z,28.62
2019-04-05T06:44:53.351Z,26.95
2019-04-05T06:47:24.599Z,32.15
2019-04-05T06:49:56.070Z,28.55
2019-04-05T06:52:27.619Z,31.17
2019-04-05T06:55:00.158Z,32.30
2019-04-05T06:57:31.538Z,29.70
2019-04-05T07:00:02.754Z,29.18
2019-04-05T07:02:34.994Z,29.85
2019-04-05T07:05:06.649Z,31.70
2019-04-05T07:07:38.261Z,30.60
2019-04-05T07:10:09.571Z,34.25
2019-04-05T07:12:40.818Z,30.08
2019-04-05T07:15:12.273Z,35.35
2019-04-05T07:17:44.546Z,32.73
2019-04-05T07:20:15.850Z,32.80
2019-04-05T07:22:47.073Z,31.02
2019-04-05T07:25:18.592Z,31.65
2019-04-05T07:27:49.915Z,30.82
2019-04-05T07:30:21.588Z,31.77
2019-04-05T07:32:53.434Z,29.25
2019-04-05T07:37:56.456Z,29.72
2019-04-05T07:40:28.275Z,32.10
2019-04-05T07:45:30.169Z,34.95
2019-04-05T07:48:01.562Z,32.53
2019-04-05T07:50:33.650Z,31.05
2019-04-05T07:53:05.164Z,35.98
2019-04-05T07:55:36.554Z,32.78
2019-04-05T07:58:08.175Z,32.17
2019-04-05T08:00:50.945Z,31.73
2019-04-05T08:03:24.150Z,33.55
2019-04-05T08:05:55.821Z,32.50
2019-04-05T08:08:36.567Z,34.18
2019-04-05T08:11:08.427Z,34.05
2019-04-05T08:16:09.839Z,32.25
2019-04-05T08:18:41.264Z,28.83
2019-04-05T08:21:13.760Z,26.12
2019-04-05T08:23:45.143Z,26.68
2019-04-05T08:26:16.938Z,26.80
2019-04-05T08:31:18.233Z,24.87
2019-04-05T08:33:49.831Z,24.05
2019-04-05T08:36:21.415Z,25.95
2019-04-05T08:38:54.286Z,23.38
2019-04-05T08:41:26.296Z,26.27
2019-04-05T08:43:58.797Z,26.25
2019-04-05T08:46:30.501Z,24.12
2019-04-05T08:49:10.551Z,22.48
2019-04-05T08:51:37.375Z,24.32
2019-04-05T08:54:08.947Z,24.37
2019-04-05T08:56:40.249Z,23.38
2019-04-05T08:59:11.904Z,22.48
2019-04-05T09:01:43.422Z,20.25
2019-04-05T09:04:14.794Z,25.02
2019-04-05T09:06:46.401Z,22.15
2019-04-05T09:09:18.084Z,23.90
2019-04-05T09:11:49.710Z,21.82
2019-04-05T09:14:21.111Z,21.55
2019-04-05T09:16:52.488Z,22.17
2019-04-05T09:19:24.257Z,21.37
2019-04-05T09:21:55.706Z,20.60
2019-04-05T09:24:26.984Z,19.62
2019-04-05T09:26:58.193Z,18.77
2019-04-05T09:29:29.725Z,19.70
2019-04-05T09:32:00.910Z,20.08
2019-04-05T09:34:34.080Z,19.35
2019-04-05T09:37:06.180Z,20.25
2019-04-05T09:39:37.407Z,21.25
2019-04-05T09:42:08.954Z,19.25
2019-04-05T09:44:40.279Z,22.55
2019-04-05T09:47:11.695Z,19.98
2019-04-05T09:49:43.370Z,22.20
2019-04-05T09:52:14.946Z,18.05
2019-04-05T09:54:46.858Z,19.60
2019-04-05T09:59:48.297Z,19.57
2019-04-05T10:02:19.936Z,18.98
2019-04-05T10:04:51.539Z,19.90
2019-04-05T10:07:23.068Z,21.50
2019-04-05T10:09:54.811Z,18.02
2019-04-05T10:12:26.421Z,17.35
2019-04-05T10:14:58.262Z,17.05
2019-04-05T10:17:31.171Z,18.12
2019-04-05T10:20:02.923Z,17.57
2019-04-05T10:22:35.888Z,18.05
2019-04-05T10:25:07.278Z,19.67
2019-04-05T10:27:38.829Z,18.60
2019-04-05T10:30:12.467Z,18.95
2019-04-05T10:32:46.067Z,19.23
2019-04-05T10:35:17.714Z,20.52
2019-04-05T10:37:49.065Z,20.45
2019-04-05T10:40:20.639Z,20.85
2019-04-05T10:42:52.424Z,22.55
2019-04-05T10:45:23.856Z,22.70
2019-04-05T10:47:56.145Z,22.22
2019-04-05T10:50:27.770Z,22.00
2019-04-05T10:52:59.150Z,22.58
2019-04-05T10:55:30.443Z,20.35
2019-04-05T10:58:02.050Z,20.65
2019-04-05T11:00:34.164Z,20.55
2019-04-05T11:03:07.981Z,21.48
2019-04-05T11:05:40.139Z,22.52
2019-04-05T11:08:11.650Z,21.52
2019-04-05T11:10:42.938Z,21.57
2019-04-05T11:13:14.566Z,20.92
2019-04-05T11:15:45.827Z,23.30
2019-04-05T11:18:18.380Z,21.97
2019-04-05T11:20:49.838Z,21.80
2019-04-05T11:23:21.908Z,20.88
2019-04-05T11:25:54.064Z,21.07
2019-04-05T11:28:25.374Z,19.45
2019-04-05T11:30:56.680Z,21.62
2019-04-05T11:33:28.267Z,23.00
2019-04-05T11:35:59.943Z,21.65
2019-04-05T11:41:02.342Z,21.17
2019-04-05T11:43:35.987Z,20.57
2019-04-05T11:46:07.275Z,20.90
2019-04-05T11:48:41.172Z,22.13
2019-04-05T11:51:12.124Z,20.45
2019-04-05T11:53:43.318Z,20.52
2019-04-05T11:56:15.449Z,23.90
2019-04-05T11:58:50.109Z,19.77
2019-04-05T12:01:24.002Z,21.00
2019-04-05T12:03:56.830Z,24.32
2019-04-05T12:06:28.106Z,21.62
2019-04-05T12:09:01.463Z,21.45
2019-04-05T12:11:34.146Z,22.67
2019-04-05T12:14:05.615Z,23.92
2019-04-05T12:16:37.524Z,20.15
2019-04-05T12:19:09.187Z,21.60
2019-04-05T12:21:40.772Z,23.98
2019-04-05T12:24:12.651Z,21.62
2019-04-05T12:29:14.398Z,22.37
2019-04-05T12:31:47.611Z,25.55
2019-04-05T12:34:22.239Z,21.37
2019-04-05T12:36:53.292Z,21.75
2019-04-05T12:39:24.887Z,21.70
2019-04-05T12:41:56.217Z,24.02
2019-04-05T12:44:27.485Z,23.73
2019-04-05T12:46:58.788Z,20.40
2019-04-05T12:49:30.478Z,23.18
2019-04-05T12:52:02.132Z,22.42
2019-04-05T12:54:33.758Z,24.77
2019-04-05T12:57:05.707Z,22.95
2019-04-05T12:59:37.054Z,24.12
2019-04-05T13:02:08.869Z,21.68
2019-04-05T13:04:40.154Z,22.82
2019-04-05T13:07:11.441Z,21.48
2019-04-05T13:09:45.554Z,21.73
2019-04-05T13:12:16.063Z,18.35
2019-04-05T13:14:47.617Z,20.32
2019-04-05T13:17:19.791Z,20.65
2019-04-05T13:19:51.101Z,19.17
2019-04-05T13:22:23.587Z,24.37
2019-04-05T13:24:54.959Z,23.07
2019-04-05T13:27:27.923Z,22.70
2019-04-05T13:29:59.208Z,23.20
2019-04-05T13:32:30.511Z,22.27
2019-04-05T13:35:02.076Z,22.75
2019-04-05T13:37:33.658Z,22.40
2019-04-05T13:40:06.511Z,22.10
2019-04-05T13:42:37.992Z,22.90
2019-04-05T13:45:11.460Z,25.80
2019-04-05T13:47:43.183Z,20.52
2019-04-05T13:50:14.929Z,21.70
2019-04-05T13:52:46.835Z,20.40
2019-04-05T13:55:18.551Z,21.62
2019-04-05T13:57:50.190Z,20.77
2019-04-05T14:00:21.741Z,22.67
2019-04-05T14:02:53.369Z,21.68
2019-04-05T14:05:24.674Z,21.27
2019-04-05T14:08:10.044Z,22.30
2019-04-05T14:10:34.223Z,21.55
2019-04-05T14:13:05.539Z,21.52
2019-04-05T14:15:37.232Z,22.25
2019-04-05T14:18:08.875Z,21.70
2019-04-05T14:20:41.283Z,22.05
2019-04-05T14:23:12.497Z,20.60
2019-04-05T14:25:43.758Z,21.17
2019-04-05T14:28:15.319Z,21.50
2019-04-05T14:30:46.985Z,19.77
2019-04-05T14:33:18.653Z,21.50
2019-04-05T14:35:50.280Z,20.05
2019-04-05T14:38:23.193Z,21.10
2019-04-05T14:40:55.341Z,25.45
2019-04-05T14:43:26.616Z,20.35
2019-04-05T14:45:58.218Z,20.77
2019-04-05T14:48:31.909Z,19.55
2019-04-05T14:51:02.665Z,20.45
2019-04-05T14:53:35.312Z,22.10
2019-04-05T14:56:06.656Z,23.32
2019-04-05T14:58:38.235Z,23.20
2019-04-05T15:01:10.671Z,22.15
2019-04-05T15:03:42.556Z,21.27
2019-04-05T15:06:14.466Z,22.20
2019-04-05T15:08:47.842Z,21.07
2019-04-05T15:11:19.696Z,22.27
2019-04-05T15:13:52.060Z,25.27
2019-04-05T15:16:23.570Z,21.25
2019-04-05T15:18:55.894Z,21.65
2019-04-05T15:21:27.792Z,22.40
2019-04-05T15:26:31.126Z,21.37
2019-04-05T15:29:02.702Z,20.85
2019-04-05T15:31:34.611Z,21.20
2019-04-05T15:34:05.941Z,19.90
2019-04-05T15:36:37.532Z,21.68
2019-04-05T15:39:09.905Z,21.07
2019-04-05T15:41:41.194Z,21.33
2019-04-05T15:44:12.814Z,20.82
2019-04-05T15:46:44.050Z,22.67
2019-04-05T15:49:15.575Z,22.35
2019-04-05T15:51:46.798Z,21.90
2019-04-05T15:54:18.033Z,21.90
2019-04-05T15:56:49.253Z,23.07
2019-04-05T15:59:21.912Z,25.02
2019-04-05T16:01:53.265Z,119.22
2019-04-05T16:04:24.645Z,326.40
2019-04-05T16:06:56.202Z,198.20
2019-04-05T16:09:27.939Z,119.97
2019-04-05T16:14:30.516Z,73.12
2019-04-05T16:17:02.113Z,209.52
2019-04-05T16:19:33.703Z,99.05
2019-04-05T16:22:05.133Z,75.25
2019-04-05T16:24:36.843Z,57.38
2019-04-05T16:27:08.821Z,46.73
2019-04-05T16:29:40.090Z,36.55
2019-04-05T16:32:11.329Z,33.98
2019-04-05T16:34:49.829Z,31.75
2019-04-05T16:37:21.646Z,31.25
2019-04-05T16:42:24.418Z,32.42
2019-04-05T16:44:55.954Z,30.35
2019-04-05T16:47:27.395Z,30.20
2019-04-05T16:49:58.658Z,30.60
2019-04-05T16:52:43.800Z,32.20
2019-04-05T16:55:08.515Z,27.75
2019-04-05T16:57:40.646Z,31.40
2019-04-05T17:00:14.066Z,30.40
2019-04-05T17:02:46.075Z,30.12
2019-04-05T17:05:17.706Z,28.83
2019-04-05T17:07:49.456Z,29.70
2019-04-05T17:12:51.361Z,29.75
2019-04-05T17:15:23.195Z,28.32
2019-04-05T17:17:56.750Z,30.48
2019-04-05T17:20:28.944Z,30.32
2019-04-05T17:23:01.011Z,29.48
2019-04-05T17:25:32.754Z,31.37
2019-04-05T17:28:06.496Z,30.62
2019-04-05T17:30:41.466Z,29.95
2019-04-05T17:33:12.941Z,31.55
2019-04-05T17:35:44.605Z,29.60
2019-04-05T17:38:15.966Z,29.48
2019-04-05T17:40:48.971Z,28.05
2019-04-05T17:43:20.730Z,26.30
2019-04-05T17:45:52.031Z,30.68
2019-04-05T17:48:23.764Z,28.47
2019-04-05T17:50:55.153Z,29.48
2019-04-05T17:53:26.904Z,27.70
2019-04-05T17:55:59.162Z,26.77
2019-04-05T17:58:33.469Z,31.82
2019-04-05T18:01:04.961Z,27.82
2019-04-05T18:03:36.852Z,29.80
2019-04-05T18:08:40.997Z,28.80
2019-04-05T18:11:13.312Z,25.52
2019-04-05T18:13:45.010Z,25.55
2019-04-05T18:16:16.282Z,27.75
2019-04-05T18:18:47.866Z,28.75
2019-04-05T18:21:20.445Z,29.35
2019-04-05T18:23:52.422Z,29.98
2019-04-05T18:26:24.586Z,31.30
2019-04-05T18:28:56.282Z,30.57
2019-04-05T18:31:28.278Z,31.50
2019-04-05T18:36:30.698Z,33.53
2019-04-05T18:39:02.446Z,34.63
2019-04-05T18:41:36.277Z,31.52
2019-04-05T18:44:08.053Z,31.20
2019-04-05T18:46:40.933Z,31.85
2019-04-05T18:52:12.919Z,33.10
2019-04-05T18:54:44.322Z,32.08
2019-04-05T18:57:15.926Z,33.35
2019-04-05T18:59:47.188Z,32.73
2019-04-05T19:02:18.435Z,34.80
2019-04-05T19:04:49.721Z,33.95
2019-04-05T19:07:22.374Z,33.15
2019-04-05T19:09:54.161Z,36.23
2019-04-05T19:12:26.076Z,539.63
2019-04-05T19:14:58.724Z,480.40
2019-04-05T19:17:30.146Z,256.05
2019-04-05T19:20:01.578Z,208.82
2019-04-05T19:22:33.403Z,162.65
2019-04-05T19:25:05.941Z,144.22
2019-04-05T19:27:38.867Z,248.80
2019-04-05T19:50:42.579Z,64.82
2019-04-05T19:53:13.821Z,61.77
2019-04-05T19:55:45.079Z,57.17
2019-04-05T19:58:16.403Z,52.30
2019-04-05T20:00:47.608Z,52.25
2019-04-05T20:03:18.946Z,46.25
2019-04-05T20:05:50.503Z,46.88
2019-04-05T20:08:22.138Z,41.55
2019-04-05T20:10:53.850Z,43.23
2019-04-05T20:13:25.115Z,43.02
2019-04-05T20:15:56.407Z,42.03
2019-04-05T20:18:28.071Z,44.93
2019-04-05T20:21:00.247Z,45.00
2019-04-05T20:23:31.490Z,45.10
2019-04-05T20:26:02.918Z,45.40
2019-04-05T20:28:34.474Z,45.08
2019-04-05T20:31:05.779Z,46.55
2019-04-05T20:33:37.547Z,42.78
2019-04-05T20:36:09.185Z,42.90
2019-04-05T20:41:11.008Z,50.00
2019-04-05T20:46:12.851Z,57.35
2019-04-05T20:48:44.108Z,48.60
2019-04-05T20:51:15.966Z,46.55
2019-04-05T20:56:17.387Z,43.13
2019-04-05T20:58:48.683Z,45.48
2019-04-05T21:01:20.235Z,54.45
2019-04-05T21:03:52.835Z,197.82
2019-04-05T21:06:24.123Z,442.57
2019-04-05T21:08:55.738Z,248.87
2019-04-05T21:11:27.345Z,149.60
2019-04-05T21:13:58.881Z,144.65
2019-04-05T21:16:30.149Z,93.85
2019-04-05T21:19:01.760Z,70.57
2019-04-05T21:21:32.953Z,62.48
2019-04-05T21:24:04.541Z,64.10
2019-04-05T21:26:37.542Z,53.95
2019-04-05T21:29:08.839Z,47.08
2019-04-05T21:31:40.862Z,47.03
2019-04-05T21:36:42.696Z,44.15
2019-04-05T21:39:14.258Z,45.40
2019-04-05T21:41:45.832Z,39.92
2019-04-05T21:44:18.037Z,40.92
2019-04-05T21:46:50.036Z,41.70
2019-04-05T21:49:22.063Z,41.08
2019-04-05T21:51:56.264Z,39.27
2019-04-05T21:54:28.207Z,41.05
2019-04-05T21:56:59.578Z,39.25
2019-04-05T21:59:31.025Z,43.02
2019-04-05T22:02:02.534Z,39.92
2019-04-05T22:04:33.936Z,39.25
2019-04-05T22:07:06.087Z,37.73
2019-04-05T22:09:37.353Z,41.35
2019-04-05T22:12:08.720Z,36.15
2019-04-05T22:14:40.050Z,38.50
2019-04-05T22:17:11.299Z,41.00
2019-04-05T22:19:42.547Z,42.23
2019-04-05T22:22:13.972Z,39.50
2019-04-05T22:24:46.207Z,36.77
2019-04-05T22:27:18.080Z,38.58
2019-04-05T22:32:19.313Z,37.98
2019-04-05T22:34:51.159Z,41.50
2019-04-05T22:39:53.387Z,39.50
2019-04-05T22:44:56.591Z,38.40
2019-04-05T22:47:27.834Z,37.23
2019-04-05T22:49:59.513Z,41.05
2019-04-05T22:52:31.269Z,40.95
2019-04-05T22:55:11.228Z,39.88
2019-04-05T22:57:35.885Z,38.30
2019-04-05T23:00:07.510Z,39.15
2019-04-05T23:02:40.913Z,42.03
2019-04-05T23:07:42.541Z,41.50
2019-04-05T23:10:13.922Z,41.77
2019-04-05T23:12:45.172Z,41.45
2019-04-05T23:15:17.221Z,40.38
2019-04-05T23:17:48.888Z,41.73
2019-04-05T23:20:20.765Z,38.48
2019-04-05T23:25:22.779Z,43.02
2019-04-05T23:27:54.447Z,39.58
2019-04-05T23:32:57.043Z,38.98
2019-04-05T23:35:28.330Z,40.10
2019-04-05T23:37:59.629Z,39.53
2019-04-05T23:40:30.903Z,41.80
2019-04-05T23:43:03.210Z,44.08
2019-04-05T23:45:34.855Z,38.75
2019-04-05T23:48:06.312Z,44.20
2019-04-05T23:50:38.065Z,41.30
2019-04-05T23:53:10.351Z,38.92
2019-04-05T23:55:41.647Z,39.20
2019-04-05T23:58:13.367Z,40.45
